ZSSS METAR and TAF | Updated Today

ZSSS METAR

Shanghai Hongqiao International Airport

Observation time: 15 min. ago

ZSSS 052000Z 11002MPS 7000 -RA BKN008 OVC026 09/09 Q1019 NOSIG

Need help? Read our tutorial on how to read METARs or read the parsed version below.

Shanghai Hongqiao International Airport (ZSSS) METAR

  • Weather conditions on Sun, 05 Feb 2023 20:00:00 +0000 (15 min. ago):
  • Present conditions: Light rain
  • Clouds: Broken sky at 244 meters; overcast sky at 792 meters
  • Visibility: 7000 meters
  • Wind: 110 degrees at 2 knots
  • Temperature: 9 celsius
  • Dew point: 9 celsius
  • Pressure: 1019 millibars
  • Remarks: None


Useful to know...

ZSSS TAF

Shanghai Hongqiao International Airport

TAF ZSSS 051503Z 0518/0618 10004MPS 6000 BKN015 TX12/0606Z TN08/0521Z BECMG 0604/0605 05004MPS
Observation time: 5:12 hr. ago
Need help? Read our tutorial on how to read TAFs or read the parsed version below.

Parsed version of TAF for Shanghai Hongqiao International Airport (ZSSS)

  • From 05 February at 18:00 UTC, to day 06 of the month at 18:00 UTC
  • Clouds: Broken sky at 457 meters
  • Visibility: 6000 meters
  • Wind: 100 degrees at 4
  • Expected to arise soon, from 06 February at 04:00 UTC, to day 06 of the month at 05:00 UTC
  • Wind: 50 degrees at 4